sensor_id;sensor_type;location;lat;lon;timestamp;P1;durP1;ratioP1;P2;durP2;ratioP2
22480;SDS011;11407;56.964;-2.212;2023-06-10T00:02:25;7.77;;;6.10;;
22480;SDS011;11407;56.964;-2.212;2023-06-10T00:04:51;6.90;;;6.07;;
22480;SDS011;11407;56.964;-2.212;2023-06-10T00:07:17;9.60;;;6.23;;
22480;SDS011;11407;56.964;-2.212;2023-06-10T00:09:42;10.20;;;6.00;;
22480;SDS011;11407;56.964;-2.212;2023-06-10T00:12:08;10.40;;;6.33;;
22480;SDS011;11407;56.964;-2.212;2023-06-10T00:14:36;8.87;;;6.43;;
22480;SDS011;11407;56.964;-2.212;2023-06-10T00:17:02;7.30;;;6.03;;
22480;SDS011;11407;56.964;-2.212;2023-06-10T00:19:27;7.53;;;5.63;;
22480;SDS011;11407;56.964;-2.212;2023-06-10T00:21:55;9.10;;;5.67;;
22480;SDS011;11407;56.964;-2.212;2023-06-10T00:24:20;6.53;;;5.80;;
22480;SDS011;11407;56.964;-2.212;2023-06-10T00:26:45;7.50;;;5.13;;
22480;SDS011;11407;56.964;-2.212;2023-06-10T00:29:11;7.70;;;6.33;;
22480;SDS011;11407;56.964;-2.212;2023-06-10T00:31:37;6.23;;;5.60;;
22480;SDS011;11407;56.964;-2.212;2023-06-10T00:34:02;7.07;;;5.77;;
22480;SDS011;11407;56.964;-2.212;2023-06-10T00:36:28;9.10;;;6.17;;
22480;SDS011;11407;56.964;-2.212;2023-06-10T00:38:53;8.33;;;6.00;;
22480;SDS011;11407;56.964;-2.212;2023-06-10T00:41:18;8.13;;;5.80;;
22480;SDS011;11407;56.964;-2.212;2023-06-10T00:43:44;8.13;;;5.77;;
22480;SDS011;11407;56.964;-2.212;2023-06-10T00:46:09;5.80;;;5.20;;
22480;SDS011;11407;56.964;-2.212;2023-06-10T00:48:36;7.23;;;5.17;;
22480;SDS011;11407;56.964;-2.212;2023-06-10T00:51:03;7.23;;;4.97;;
22480;SDS011;11407;56.964;-2.212;2023-06-10T00:53:30;8.60;;;5.57;;
22480;SDS011;11407;56.964;-2.212;2023-06-10T00:55:55;8.60;;;5.53;;
22480;SDS011;11407;56.964;-2.212;2023-06-10T00:58:20;7.63;;;5.37;;
22480;SDS011;11407;56.964;-2.212;2023-06-10T01:00:46;9.73;;;5.13;;
22480;SDS011;11407;56.964;-2.212;2023-06-10T01:03:11;7.97;;;4.63;;
22480;SDS011;11407;56.964;-2.212;2023-06-10T01:05:40;7.93;;;5.10;;
22480;SDS011;11407;56.964;-2.212;2023-06-10T01:08:07;8.20;;;5.07;;
22480;SDS011;11407;56.964;-2.212;2023-06-10T01:10:37;7.00;;;5.27;;
22480;SDS011;11407;56.964;-2.212;2023-06-10T01:13:03;7.77;;;5.30;;
22480;SDS011;11407;56.964;-2.212;2023-06-10T01:15:32;9.13;;;5.23;;
22480;SDS011;11407;56.964;-2.212;2023-06-10T01:20:24;8.00;;;5.70;;
22480;SDS011;11407;56.964;-2.212;2023-06-10T01:22:51;7.50;;;5.00;;
22480;SDS011;11407;56.964;-2.212;2023-06-10T01:25:19;5.97;;;5.10;;
22480;SDS011;11407;56.964;-2.212;2023-06-10T01:27:45;7.20;;;5.27;;
22480;SDS011;11407;56.964;-2.212;2023-06-10T01:30:14;6.97;;;5.00;;
22480;SDS011;11407;56.964;-2.212;2023-06-10T01:32:43;8.13;;;4.97;;
22480;SDS011;11407;56.964;-2.212;2023-06-10T01:35:09;6.33;;;4.93;;
22480;SDS011;11407;56.964;-2.212;2023-06-10T01:37:35;5.67;;;4.83;;
22480;SDS011;11407;56.964;-2.212;2023-06-10T01:40:02;5.53;;;4.63;;
22480;SDS011;11407;56.964;-2.212;2023-06-10T01:42:31;7.37;;;4.80;;
22480;SDS011;11407;56.964;-2.212;2023-06-10T01:44:56;7.27;;;4.23;;
22480;SDS011;11407;56.964;-2.212;2023-06-10T01:47:22;6.07;;;4.43;;
22480;SDS011;11407;56.964;-2.212;2023-06-10T01:49:47;6.43;;;5.03;;
22480;SDS011;11407;56.964;-2.212;2023-06-10T01:52:13;5.23;;;4.60;;
22480;SDS011;11407;56.964;-2.212;2023-06-10T01:54:38;5.27;;;4.17;;
22480;SDS011;11407;56.964;-2.212;2023-06-10T01:57:03;5.90;;;4.70;;
22480;SDS011;11407;56.964;-2.212;2023-06-10T01:59:29;5.23;;;4.30;;
22480;SDS011;11407;56.964;-2.212;2023-06-10T02:01:54;8.73;;;4.80;;
22480;SDS011;11407;56.964;-2.212;2023-06-10T02:04:19;5.30;;;4.40;;
22480;SDS011;11407;56.964;-2.212;2023-06-10T02:06:44;6.63;;;5.00;;
22480;SDS011;11407;56.964;-2.212;2023-06-10T02:09:10;8.37;;;5.17;;
22480;SDS011;11407;56.964;-2.212;2023-06-10T02:11:35;5.57;;;5.07;;
22480;SDS011;11407;56.964;-2.212;2023-06-10T02:14:01;6.30;;;5.03;;
22480;SDS011;11407;56.964;-2.212;2023-06-10T02:16:26;7.23;;;5.20;;
22480;SDS011;11407;56.964;-2.212;2023-06-10T02:18:51;9.93;;;5.00;;
22480;SDS011;11407;56.964;-2.212;2023-06-10T02:21:17;6.63;;;4.60;;
22480;SDS011;11407;56.964;-2.212;2023-06-10T02:23:42;4.77;;;4.27;;
22480;SDS011;11407;56.964;-2.212;2023-06-10T02:26:07;8.43;;;4.73;;
22480;SDS011;11407;56.964;-2.212;2023-06-10T02:28:33;7.10;;;4.40;;
22480;SDS011;11407;56.964;-2.212;2023-06-10T02:30:58;7.23;;;4.50;;
22480;SDS011;11407;56.964;-2.212;2023-06-10T02:33:24;8.37;;;4.80;;
22480;SDS011;11407;56.964;-2.212;2023-06-10T02:35:49;6.30;;;4.93;;
22480;SDS011;11407;56.964;-2.212;2023-06-10T02:38:15;7.00;;;4.67;;
22480;SDS011;11407;56.964;-2.212;2023-06-10T02:40:40;4.93;;;4.40;;
22480;SDS011;11407;56.964;-2.212;2023-06-10T02:43:05;6.13;;;4.47;;
22480;SDS011;11407;56.964;-2.212;2023-06-10T02:45:30;6.13;;;4.90;;
22480;SDS011;11407;56.964;-2.212;2023-06-10T02:47:56;6.90;;;4.67;;
22480;SDS011;11407;56.964;-2.212;2023-06-10T02:50:21;7.10;;;5.00;;
22480;SDS011;11407;56.964;-2.212;2023-06-10T02:52:46;6.40;;;4.87;;
22480;SDS011;11407;56.964;-2.212;2023-06-10T02:55:12;5.60;;;4.87;;
22480;SDS011;11407;56.964;-2.212;2023-06-10T02:57:37;7.10;;;4.67;;
22480;SDS011;11407;56.964;-2.212;2023-06-10T03:00:02;6.00;;;4.90;;
22480;SDS011;11407;56.964;-2.212;2023-06-10T03:02:33;8.50;;;4.60;;
22480;SDS011;11407;56.964;-2.212;2023-06-10T03:05:03;10.27;;;4.93;;
22480;SDS011;11407;56.964;-2.212;2023-06-10T03:07:28;7.33;;;4.80;;
22480;SDS011;11407;56.964;-2.212;2023-06-10T03:09:54;8.80;;;5.37;;
22480;SDS011;11407;56.964;-2.212;2023-06-10T03:12:19;5.70;;;5.20;;
22480;SDS011;11407;56.964;-2.212;2023-06-10T03:14:44;7.10;;;5.33;;
22480;SDS011;11407;56.964;-2.212;2023-06-10T03:17:10;9.13;;;5.47;;
22480;SDS011;11407;56.964;-2.212;2023-06-10T03:19:35;8.97;;;5.57;;
22480;SDS011;11407;56.964;-2.212;2023-06-10T03:22:10;6.90;;;5.30;;
22480;SDS011;11407;56.964;-2.212;2023-06-10T03:24:35;7.13;;;5.47;;
22480;SDS011;11407;56.964;-2.212;2023-06-10T03:27:01;8.73;;;5.70;;
22480;SDS011;11407;56.964;-2.212;2023-06-10T03:29:27;7.53;;;6.00;;
22480;SDS011;11407;56.964;-2.212;2023-06-10T03:31:52;8.30;;;5.97;;
22480;SDS011;11407;56.964;-2.212;2023-06-10T03:34:17;7.57;;;6.60;;
22480;SDS011;11407;56.964;-2.212;2023-06-10T03:36:42;8.13;;;5.90;;
22480;SDS011;11407;56.964;-2.212;2023-06-10T03:39:08;9.07;;;6.13;;
22480;SDS011;11407;56.964;-2.212;2023-06-10T03:41:34;7.87;;;6.20;;
22480;SDS011;11407;56.964;-2.212;2023-06-10T03:43:59;10.17;;;5.90;;
22480;SDS011;11407;56.964;-2.212;2023-06-10T03:46:25;6.50;;;5.73;;
22480;SDS011;11407;56.964;-2.212;2023-06-10T03:48:51;6.20;;;5.60;;
22480;SDS011;11407;56.964;-2.212;2023-06-10T03:51:16;7.90;;;5.50;;
22480;SDS011;11407;56.964;-2.212;2023-06-10T03:53:41;6.27;;;5.67;;
22480;SDS011;11407;56.964;-2.212;2023-06-10T03:56:06;7.00;;;5.87;;
22480;SDS011;11407;56.964;-2.212;2023-06-10T03:58:32;6.80;;;5.53;;
22480;SDS011;11407;56.964;-2.212;2023-06-10T04:00:57;6.97;;;5.57;;
22480;SDS011;11407;56.964;-2.212;2023-06-10T04:03:22;7.40;;;6.30;;
22480;SDS011;11407;56.964;-2.212;2023-06-10T04:05:48;7.13;;;5.80;;
22480;SDS011;11407;56.964;-2.212;2023-06-10T04:08:15;8.40;;;6.50;;
22480;SDS011;11407;56.964;-2.212;2023-06-10T04:10:40;7.87;;;6.10;;
22480;SDS011;11407;56.964;-2.212;2023-06-10T04:13:05;9.83;;;6.43;;
22480;SDS011;11407;56.964;-2.212;2023-06-10T04:15:30;8.67;;;6.80;;
22480;SDS011;11407;56.964;-2.212;2023-06-10T04:17:58;7.80;;;6.50;;
22480;SDS011;11407;56.964;-2.212;2023-06-10T04:20:24;6.47;;;5.80;;
22480;SDS011;11407;56.964;-2.212;2023-06-10T04:22:49;9.07;;;6.10;;
22480;SDS011;11407;56.964;-2.212;2023-06-10T04:25:14;9.93;;;6.87;;
22480;SDS011;11407;56.964;-2.212;2023-06-10T04:27:39;9.67;;;6.30;;
22480;SDS011;11407;56.964;-2.212;2023-06-10T04:30:05;7.63;;;6.23;;
22480;SDS011;11407;56.964;-2.212;2023-06-10T04:32:30;8.57;;;6.40;;
22480;SDS011;11407;56.964;-2.212;2023-06-10T04:34:55;8.83;;;5.73;;
22480;SDS011;11407;56.964;-2.212;2023-06-10T04:37:21;6.87;;;6.07;;
22480;SDS011;11407;56.964;-2.212;2023-06-10T04:39:46;8.77;;;6.13;;
22480;SDS011;11407;56.964;-2.212;2023-06-10T04:42:12;6.60;;;5.87;;
22480;SDS011;11407;56.964;-2.212;2023-06-10T04:44:37;8.40;;;5.90;;
22480;SDS011;11407;56.964;-2.212;2023-06-10T04:47:03;7.77;;;6.47;;
22480;SDS011;11407;56.964;-2.212;2023-06-10T04:49:28;7.43;;;6.10;;
22480;SDS011;11407;56.964;-2.212;2023-06-10T04:51:54;8.23;;;6.07;;
22480;SDS011;11407;56.964;-2.212;2023-06-10T04:54:20;7.43;;;5.93;;
22480;SDS011;11407;56.964;-2.212;2023-06-10T04:56:45;8.47;;;5.90;;
22480;SDS011;11407;56.964;-2.212;2023-06-10T04:59:10;8.50;;;6.50;;
22480;SDS011;11407;56.964;-2.212;2023-06-10T05:01:35;9.47;;;6.73;;
22480;SDS011;11407;56.964;-2.212;2023-06-10T05:04:01;7.27;;;6.27;;
22480;SDS011;11407;56.964;-2.212;2023-06-10T05:06:26;8.43;;;6.20;;
22480;SDS011;11407;56.964;-2.212;2023-06-10T05:08:51;9.53;;;6.70;;
22480;SDS011;11407;56.964;-2.212;2023-06-10T05:11:16;9.20;;;6.20;;
22480;SDS011;11407;56.964;-2.212;2023-06-10T05:13:42;8.47;;;6.40;;
22480;SDS011;11407;56.964;-2.212;2023-06-10T05:16:09;8.37;;;5.67;;
22480;SDS011;11407;56.964;-2.212;2023-06-10T05:18:34;7.33;;;5.73;;
22480;SDS011;11407;56.964;-2.212;2023-06-10T05:21:00;7.13;;;5.57;;
22480;SDS011;11407;56.964;-2.212;2023-06-10T05:23:25;6.10;;;5.30;;
22480;SDS011;11407;56.964;-2.212;2023-06-10T05:25:51;8.10;;;5.20;;
22480;SDS011;11407;56.964;-2.212;2023-06-10T05:28:16;8.83;;;5.30;;
22480;SDS011;11407;56.964;-2.212;2023-06-10T05:30:41;5.53;;;4.97;;
22480;SDS011;11407;56.964;-2.212;2023-06-10T05:33:07;8.67;;;4.70;;
22480;SDS011;11407;56.964;-2.212;2023-06-10T05:35:32;6.60;;;5.40;;
22480;SDS011;11407;56.964;-2.212;2023-06-10T05:37:57;6.47;;;4.80;;
22480;SDS011;11407;56.964;-2.212;2023-06-10T05:40:22;7.70;;;4.47;;
22480;SDS011;11407;56.964;-2.212;2023-06-10T05:42:48;6.77;;;4.53;;
22480;SDS011;11407;56.964;-2.212;2023-06-10T05:45:13;8.97;;;5.00;;
22480;SDS011;11407;56.964;-2.212;2023-06-10T05:47:39;7.40;;;4.70;;
22480;SDS011;11407;56.964;-2.212;2023-06-10T05:50:05;6.07;;;4.70;;
22480;SDS011;11407;56.964;-2.212;2023-06-10T05:52:34;8.33;;;5.07;;
22480;SDS011;11407;56.964;-2.212;2023-06-10T05:54:59;7.37;;;4.80;;
22480;SDS011;11407;56.964;-2.212;2023-06-10T05:57:25;5.97;;;4.43;;
22480;SDS011;11407;56.964;-2.212;2023-06-10T05:59:51;7.17;;;4.27;;
22480;SDS011;11407;56.964;-2.212;2023-06-10T06:02:16;7.07;;;4.50;;
22480;SDS011;11407;56.964;-2.212;2023-06-10T06:04:41;5.83;;;4.77;;
22480;SDS011;11407;56.964;-2.212;2023-06-10T06:07:06;7.30;;;4.77;;
22480;SDS011;11407;56.964;-2.212;2023-06-10T06:09:32;6.07;;;4.33;;
22480;SDS011;11407;56.964;-2.212;2023-06-10T06:11:57;5.77;;;4.20;;
22480;SDS011;11407;56.964;-2.212;2023-06-10T06:14:22;6.53;;;4.20;;
22480;SDS011;11407;56.964;-2.212;2023-06-10T06:16:48;7.27;;;4.50;;
22480;SDS011;11407;56.964;-2.212;2023-06-10T06:19:13;4.63;;;3.73;;
22480;SDS011;11407;56.964;-2.212;2023-06-10T06:21:38;4.43;;;3.40;;
22480;SDS011;11407;56.964;-2.212;2023-06-10T06:24:04;6.33;;;3.50;;
22480;SDS011;11407;56.964;-2.212;2023-06-10T06:26:29;5.30;;;3.27;;
22480;SDS011;11407;56.964;-2.212;2023-06-10T06:28:54;6.77;;;3.57;;
22480;SDS011;11407;56.964;-2.212;2023-06-10T06:31:20;5.47;;;3.10;;
22480;SDS011;11407;56.964;-2.212;2023-06-10T06:33:45;4.77;;;3.20;;
22480;SDS011;11407;56.964;-2.212;2023-06-10T06:36:10;5.27;;;3.17;;
22480;SDS011;11407;56.964;-2.212;2023-06-10T06:38:35;5.07;;;2.63;;
22480;SDS011;11407;56.964;-2.212;2023-06-10T06:41:01;4.33;;;2.77;;
22480;SDS011;11407;56.964;-2.212;2023-06-10T06:43:28;5.03;;;2.73;;
22480;SDS011;11407;56.964;-2.212;2023-06-10T06:45:54;6.13;;;2.70;;
22480;SDS011;11407;56.964;-2.212;2023-06-10T06:48:20;5.27;;;3.00;;
22480;SDS011;11407;56.964;-2.212;2023-06-10T06:50:45;5.17;;;2.43;;
22480;SDS011;11407;56.964;-2.212;2023-06-10T06:53:11;4.70;;;2.40;;
22480;SDS011;11407;56.964;-2.212;2023-06-10T06:55:37;4.67;;;2.80;;
22480;SDS011;11407;56.964;-2.212;2023-06-10T06:58:02;4.13;;;2.80;;
22480;SDS011;11407;56.964;-2.212;2023-06-10T07:00:28;6.03;;;2.73;;
22480;SDS011;11407;56.964;-2.212;2023-06-10T07:02:54;3.40;;;2.37;;
22480;SDS011;11407;56.964;-2.212;2023-06-10T07:05:20;4.60;;;2.57;;
22480;SDS011;11407;56.964;-2.212;2023-06-10T07:07:45;4.07;;;2.70;;
22480;SDS011;11407;56.964;-2.212;2023-06-10T07:10:11;6.30;;;2.90;;
22480;SDS011;11407;56.964;-2.212;2023-06-10T07:12:37;4.33;;;2.80;;
22480;SDS011;11407;56.964;-2.212;2023-06-10T07:15:10;7.43;;;2.70;;
22480;SDS011;11407;56.964;-2.212;2023-06-10T07:17:35;5.27;;;3.10;;
22480;SDS011;11407;56.964;-2.212;2023-06-10T07:20:01;3.97;;;2.53;;
22480;SDS011;11407;56.964;-2.212;2023-06-10T07:22:26;4.93;;;3.07;;
22480;SDS011;11407;56.964;-2.212;2023-06-10T07:24:51;4.60;;;3.00;;
22480;SDS011;11407;56.964;-2.212;2023-06-10T07:27:17;6.83;;;3.03;;
22480;SDS011;11407;56.964;-2.212;2023-06-10T07:29:43;3.07;;;2.50;;
22480;SDS011;11407;56.964;-2.212;2023-06-10T07:32:08;6.00;;;3.00;;
22480;SDS011;11407;56.964;-2.212;2023-06-10T07:34:33;7.27;;;3.00;;
22480;SDS011;11407;56.964;-2.212;2023-06-10T07:36:58;5.43;;;2.80;;
22480;SDS011;11407;56.964;-2.212;2023-06-10T07:39:24;4.27;;;2.90;;
22480;SDS011;11407;56.964;-2.212;2023-06-10T07:41:49;4.77;;;2.87;;
22480;SDS011;11407;56.964;-2.212;2023-06-10T07:44:15;3.77;;;2.60;;
22480;SDS011;11407;56.964;-2.212;2023-06-10T07:46:40;4.63;;;2.53;;
22480;SDS011;11407;56.964;-2.212;2023-06-10T07:49:05;3.60;;;2.50;;
22480;SDS011;11407;56.964;-2.212;2023-06-10T07:51:30;5.33;;;2.60;;
22480;SDS011;11407;56.964;-2.212;2023-06-10T07:53:56;4.17;;;2.80;;
22480;SDS011;11407;56.964;-2.212;2023-06-10T07:56:21;6.27;;;2.70;;
22480;SDS011;11407;56.964;-2.212;2023-06-10T07:58:46;4.83;;;2.97;;
22480;SDS011;11407;56.964;-2.212;2023-06-10T08:01:11;3.97;;;2.87;;
22480;SDS011;11407;56.964;-2.212;2023-06-10T08:03:37;4.03;;;2.50;;
22480;SDS011;11407;56.964;-2.212;2023-06-10T08:06:02;5.40;;;2.70;;
22480;SDS011;11407;56.964;-2.212;2023-06-10T08:08:27;3.80;;;2.70;;
22480;SDS011;11407;56.964;-2.212;2023-06-10T08:10:52;5.93;;;2.80;;
22480;SDS011;11407;56.964;-2.212;2023-06-10T08:13:18;7.13;;;3.00;;
22480;SDS011;11407;56.964;-2.212;2023-06-10T08:15:43;7.10;;;3.07;;
22480;SDS011;11407;56.964;-2.212;2023-06-10T08:18:08;5.47;;;2.90;;
22480;SDS011;11407;56.964;-2.212;2023-06-10T08:20:33;3.77;;;2.70;;
22480;SDS011;11407;56.964;-2.212;2023-06-10T08:22:59;8.43;;;3.10;;
22480;SDS011;11407;56.964;-2.212;2023-06-10T08:25:24;3.87;;;2.63;;
22480;SDS011;11407;56.964;-2.212;2023-06-10T08:27:49;4.00;;;2.47;;
22480;SDS011;11407;56.964;-2.212;2023-06-10T08:30:15;5.27;;;2.80;;
22480;SDS011;11407;56.964;-2.212;2023-06-10T08:32:41;6.73;;;3.23;;
22480;SDS011;11407;56.964;-2.212;2023-06-10T08:35:06;3.67;;;2.70;;
22480;SDS011;11407;56.964;-2.212;2023-06-10T08:37:32;5.83;;;2.70;;
22480;SDS011;11407;56.964;-2.212;2023-06-10T08:39:57;5.67;;;3.10;;
22480;SDS011;11407;56.964;-2.212;2023-06-10T08:42:23;5.77;;;2.97;;
22480;SDS011;11407;56.964;-2.212;2023-06-10T08:44:53;5.73;;;2.60;;
22480;SDS011;11407;56.964;-2.212;2023-06-10T08:47:20;5.27;;;3.10;;
22480;SDS011;11407;56.964;-2.212;2023-06-10T08:49:47;4.00;;;3.13;;
22480;SDS011;11407;56.964;-2.212;2023-06-10T08:52:16;6.47;;;3.20;;
22480;SDS011;11407;56.964;-2.212;2023-06-10T08:54:56;2.93;;;2.53;;
22480;SDS011;11407;56.964;-2.212;2023-06-10T08:57:22;5.13;;;3.07;;
22480;SDS011;11407;56.964;-2.212;2023-06-10T08:59:48;5.10;;;3.40;;
22480;SDS011;11407;56.964;-2.212;2023-06-10T09:02:14;5.90;;;2.93;;
22480;SDS011;11407;56.964;-2.212;2023-06-10T09:04:40;5.30;;;2.73;;
22480;SDS011;11407;56.964;-2.212;2023-06-10T09:07:07;6.80;;;2.93;;
22480;SDS011;11407;56.964;-2.212;2023-06-10T09:09:32;6.70;;;2.70;;
22480;SDS011;11407;56.964;-2.212;2023-06-10T09:11:59;5.17;;;2.70;;
22480;SDS011;11407;56.964;-2.212;2023-06-10T09:14:25;7.50;;;3.27;;
22480;SDS011;11407;56.964;-2.212;2023-06-10T09:16:50;5.50;;;2.80;;
22480;SDS011;11407;56.964;-2.212;2023-06-10T09:19:16;5.07;;;2.67;;
22480;SDS011;11407;56.964;-2.212;2023-06-10T09:21:42;8.80;;;3.50;;
22480;SDS011;11407;56.964;-2.212;2023-06-10T09:24:07;6.13;;;3.00;;
22480;SDS011;11407;56.964;-2.212;2023-06-10T09:26:32;7.20;;;2.83;;
22480;SDS011;11407;56.964;-2.212;2023-06-10T09:29:02;6.10;;;2.90;;
22480;SDS011;11407;56.964;-2.212;2023-06-10T09:31:28;9.00;;;2.60;;
22480;SDS011;11407;56.964;-2.212;2023-06-10T09:33:54;3.90;;;2.70;;
22480;SDS011;11407;56.964;-2.212;2023-06-10T09:36:23;3.93;;;2.60;;
22480;SDS011;11407;56.964;-2.212;2023-06-10T09:38:49;6.93;;;2.83;;
22480;SDS011;11407;56.964;-2.212;2023-06-10T09:41:14;4.97;;;2.80;;
22480;SDS011;11407;56.964;-2.212;2023-06-10T09:43:41;6.17;;;3.13;;
22480;SDS011;11407;56.964;-2.212;2023-06-10T09:46:07;3.97;;;2.70;;
22480;SDS011;11407;56.964;-2.212;2023-06-10T09:48:42;7.90;;;3.17;;
22480;SDS011;11407;56.964;-2.212;2023-06-10T09:51:09;6.23;;;3.10;;
22480;SDS011;11407;56.964;-2.212;2023-06-10T09:53:34;4.50;;;3.00;;
22480;SDS011;11407;56.964;-2.212;2023-06-10T09:56:00;5.47;;;2.70;;
22480;SDS011;11407;56.964;-2.212;2023-06-10T09:58:38;4.63;;;2.67;;
22480;SDS011;11407;56.964;-2.212;2023-06-10T10:01:04;4.00;;;2.80;;
22480;SDS011;11407;56.964;-2.212;2023-06-10T10:03:29;3.77;;;2.30;;
22480;SDS011;11407;56.964;-2.212;2023-06-10T10:05:58;5.37;;;3.00;;
22480;SDS011;11407;56.964;-2.212;2023-06-10T10:08:25;6.27;;;2.80;;
22480;SDS011;11407;56.964;-2.212;2023-06-10T10:10:50;4.17;;;2.70;;
22480;SDS011;11407;56.964;-2.212;2023-06-10T10:13:16;5.83;;;2.93;;
22480;SDS011;11407;56.964;-2.212;2023-06-10T10:15:41;4.43;;;2.53;;
22480;SDS011;11407;56.964;-2.212;2023-06-10T10:18:07;6.00;;;2.90;;
22480;SDS011;11407;56.964;-2.212;2023-06-10T10:20:34;5.20;;;2.67;;
22480;SDS011;11407;56.964;-2.212;2023-06-10T10:23:01;5.50;;;2.83;;
22480;SDS011;11407;56.964;-2.212;2023-06-10T10:25:38;6.27;;;3.10;;
22480;SDS011;11407;56.964;-2.212;2023-06-10T10:28:13;5.60;;;2.87;;
22480;SDS011;11407;56.964;-2.212;2023-06-10T10:30:40;5.80;;;3.30;;
22480;SDS011;11407;56.964;-2.212;2023-06-10T10:33:16;6.47;;;3.13;;
22480;SDS011;11407;56.964;-2.212;2023-06-10T10:35:42;6.13;;;3.70;;
22480;SDS011;11407;56.964;-2.212;2023-06-10T10:38:08;9.77;;;3.50;;
22480;SDS011;11407;56.964;-2.212;2023-06-10T10:40:34;6.73;;;3.03;;
22480;SDS011;11407;56.964;-2.212;2023-06-10T10:42:59;6.10;;;3.17;;
22480;SDS011;11407;56.964;-2.212;2023-06-10T10:45:27;7.83;;;3.27;;
22480;SDS011;11407;56.964;-2.212;2023-06-10T10:47:52;5.03;;;3.10;;
22480;SDS011;11407;56.964;-2.212;2023-06-10T10:50:19;6.37;;;3.10;;
22480;SDS011;11407;56.964;-2.212;2023-06-10T10:52:54;5.97;;;3.20;;
22480;SDS011;11407;56.964;-2.212;2023-06-10T10:55:20;6.30;;;3.10;;
22480;SDS011;11407;56.964;-2.212;2023-06-10T10:57:53;8.47;;;3.10;;
22480;SDS011;11407;56.964;-2.212;2023-06-10T11:00:25;5.57;;;3.23;;
22480;SDS011;11407;56.964;-2.212;2023-06-10T11:02:51;6.43;;;3.13;;
22480;SDS011;11407;56.964;-2.212;2023-06-10T11:05:19;5.13;;;3.37;;
22480;SDS011;11407;56.964;-2.212;2023-06-10T11:07:56;5.47;;;3.27;;
22480;SDS011;11407;56.964;-2.212;2023-06-10T11:10:29;5.07;;;3.10;;
22480;SDS011;11407;56.964;-2.212;2023-06-10T11:12:54;6.83;;;3.53;;
22480;SDS011;11407;56.964;-2.212;2023-06-10T11:15:22;5.83;;;3.03;;
22480;SDS011;11407;56.964;-2.212;2023-06-10T11:25:55;7.10;;;3.30;;
22480;SDS011;11407;56.964;-2.212;2023-06-10T11:28:33;5.77;;;3.40;;
22480;SDS011;11407;56.964;-2.212;2023-06-10T11:30:59;6.90;;;3.37;;
22480;SDS011;11407;56.964;-2.212;2023-06-10T11:33:24;8.00;;;3.17;;
22480;SDS011;11407;56.964;-2.212;2023-06-10T11:35:50;6.57;;;3.20;;
22480;SDS011;11407;56.964;-2.212;2023-06-10T11:38:15;9.27;;;3.40;;
22480;SDS011;11407;56.964;-2.212;2023-06-10T11:40:45;5.97;;;3.27;;
22480;SDS011;11407;56.964;-2.212;2023-06-10T11:43:11;4.60;;;3.00;;
22480;SDS011;11407;56.964;-2.212;2023-06-10T11:45:36;5.93;;;3.30;;
22480;SDS011;11407;56.964;-2.212;2023-06-10T11:48:01;5.90;;;2.87;;
22480;SDS011;11407;56.964;-2.212;2023-06-10T11:50:27;6.83;;;3.10;;
22480;SDS011;11407;56.964;-2.212;2023-06-10T11:52:53;8.37;;;3.30;;
22480;SDS011;11407;56.964;-2.212;2023-06-10T11:55:20;7.43;;;3.47;;
22480;SDS011;11407;56.964;-2.212;2023-06-10T11:57:46;6.23;;;3.13;;
22480;SDS011;11407;56.964;-2.212;2023-06-10T12:00:11;7.63;;;3.27;;
22480;SDS011;11407;56.964;-2.212;2023-06-10T12:02:36;8.63;;;3.27;;
22480;SDS011;11407;56.964;-2.212;2023-06-10T12:05:14;7.03;;;3.43;;
22480;SDS011;11407;56.964;-2.212;2023-06-10T12:07:39;7.13;;;3.80;;
22480;SDS011;11407;56.964;-2.212;2023-06-10T12:10:05;6.10;;;2.93;;
22480;SDS011;11407;56.964;-2.212;2023-06-10T12:12:30;6.77;;;3.50;;
22480;SDS011;11407;56.964;-2.212;2023-06-10T12:14:59;7.53;;;2.80;;
22480;SDS011;11407;56.964;-2.212;2023-06-10T12:19:57;5.07;;;2.90;;
22480;SDS011;11407;56.964;-2.212;2023-06-10T12:22:23;6.37;;;3.03;;
22480;SDS011;11407;56.964;-2.212;2023-06-10T12:24:59;5.97;;;2.90;;
22480;SDS011;11407;56.964;-2.212;2023-06-10T12:27:25;5.07;;;2.83;;
22480;SDS011;11407;56.964;-2.212;2023-06-10T12:29:51;7.50;;;3.13;;
22480;SDS011;11407;56.964;-2.212;2023-06-10T12:32:17;8.33;;;3.33;;
22480;SDS011;11407;56.964;-2.212;2023-06-10T12:34:43;6.33;;;3.10;;
22480;SDS011;11407;56.964;-2.212;2023-06-10T12:37:12;5.47;;;2.80;;
22480;SDS011;11407;56.964;-2.212;2023-06-10T12:39:41;6.97;;;3.40;;
22480;SDS011;11407;56.964;-2.212;2023-06-10T12:42:11;4.97;;;2.90;;
22480;SDS011;11407;56.964;-2.212;2023-06-10T12:44:40;5.90;;;2.80;;
22480;SDS011;11407;56.964;-2.212;2023-06-10T12:47:09;7.57;;;3.20;;
22480;SDS011;11407;56.964;-2.212;2023-06-10T12:49:35;5.87;;;3.13;;
22480;SDS011;11407;56.964;-2.212;2023-06-10T12:52:00;4.47;;;3.00;;
22480;SDS011;11407;56.964;-2.212;2023-06-10T12:54:26;7.70;;;3.00;;
22480;SDS011;11407;56.964;-2.212;2023-06-10T12:56:51;7.23;;;3.10;;
22480;SDS011;11407;56.964;-2.212;2023-06-10T12:59:18;6.27;;;3.03;;
22480;SDS011;11407;56.964;-2.212;2023-06-10T13:01:43;6.00;;;2.90;;
22480;SDS011;11407;56.964;-2.212;2023-06-10T13:04:08;5.87;;;3.00;;
22480;SDS011;11407;56.964;-2.212;2023-06-10T13:06:34;5.37;;;3.17;;
22480;SDS011;11407;56.964;-2.212;2023-06-10T13:09:02;5.10;;;2.90;;
22480;SDS011;11407;56.964;-2.212;2023-06-10T13:11:28;6.57;;;3.20;;
22480;SDS011;11407;56.964;-2.212;2023-06-10T13:13:53;6.10;;;3.53;;
22480;SDS011;11407;56.964;-2.212;2023-06-10T13:16:18;9.33;;;3.47;;
22480;SDS011;11407;56.964;-2.212;2023-06-10T13:18:43;6.80;;;3.30;;
22480;SDS011;11407;56.964;-2.212;2023-06-10T13:21:09;6.13;;;3.00;;
22480;SDS011;11407;56.964;-2.212;2023-06-10T13:23:34;5.50;;;3.10;;
22480;SDS011;11407;56.964;-2.212;2023-06-10T13:25:59;6.60;;;3.43;;
22480;SDS011;11407;56.964;-2.212;2023-06-10T13:28:25;9.67;;;3.80;;
22480;SDS011;11407;56.964;-2.212;2023-06-10T13:30:50;8.77;;;3.20;;
22480;SDS011;11407;56.964;-2.212;2023-06-10T13:33:15;7.90;;;3.17;;
22480;SDS011;11407;56.964;-2.212;2023-06-10T13:35:40;4.97;;;2.90;;
22480;SDS011;11407;56.964;-2.212;2023-06-10T13:38:06;4.60;;;3.00;;
22480;SDS011;11407;56.964;-2.212;2023-06-10T13:40:32;7.43;;;4.10;;
22480;SDS011;11407;56.964;-2.212;2023-06-10T13:42:57;8.30;;;4.80;;
22480;SDS011;11407;56.964;-2.212;2023-06-10T13:45:22;7.50;;;4.33;;
22480;SDS011;11407;56.964;-2.212;2023-06-10T13:47:48;5.83;;;4.10;;
22480;SDS011;11407;56.964;-2.212;2023-06-10T13:50:13;7.20;;;4.50;;
22480;SDS011;11407;56.964;-2.212;2023-06-10T13:52:38;8.77;;;3.93;;
22480;SDS011;11407;56.964;-2.212;2023-06-10T13:55:04;5.97;;;4.10;;
22480;SDS011;11407;56.964;-2.212;2023-06-10T13:57:29;6.77;;;4.03;;
22480;SDS011;11407;56.964;-2.212;2023-06-10T13:59:55;7.07;;;4.80;;
22480;SDS011;11407;56.964;-2.212;2023-06-10T14:02:21;6.93;;;5.10;;
22480;SDS011;11407;56.964;-2.212;2023-06-10T14:04:46;7.90;;;4.87;;
22480;SDS011;11407;56.964;-2.212;2023-06-10T14:07:12;6.03;;;4.67;;
22480;SDS011;11407;56.964;-2.212;2023-06-10T14:09:37;6.90;;;4.80;;
22480;SDS011;11407;56.964;-2.212;2023-06-10T14:12:03;6.77;;;5.23;;
22480;SDS011;11407;56.964;-2.212;2023-06-10T14:14:30;8.27;;;5.17;;
22480;SDS011;11407;56.964;-2.212;2023-06-10T14:16:58;6.40;;;5.17;;
22480;SDS011;11407;56.964;-2.212;2023-06-10T14:19:23;5.97;;;4.70;;
22480;SDS011;11407;56.964;-2.212;2023-06-10T14:21:48;6.17;;;4.90;;
22480;SDS011;11407;56.964;-2.212;2023-06-10T14:24:14;5.23;;;4.70;;
22480;SDS011;11407;56.964;-2.212;2023-06-10T14:26:39;7.43;;;5.17;;
22480;SDS011;11407;56.964;-2.212;2023-06-10T14:29:05;7.43;;;5.00;;
22480;SDS011;11407;56.964;-2.212;2023-06-10T14:31:30;5.87;;;4.67;;
22480;SDS011;11407;56.964;-2.212;2023-06-10T14:33:55;5.73;;;5.10;;
22480;SDS011;11407;56.964;-2.212;2023-06-10T14:36:20;5.50;;;4.83;;
22480;SDS011;11407;56.964;-2.212;2023-06-10T14:38:46;6.17;;;5.20;;
22480;SDS011;11407;56.964;-2.212;2023-06-10T14:41:11;5.80;;;4.63;;